Time;durP1;ratioP1;P1;durP2;ratioP2;P2;SDS_P1;SDS_P2;PMS_P1;PMS_P2;Temp;Humidity;BMP_temperature;BMP_pressure;BME280_temperature;BME280_humidity;BME280_pressure;Samples;Min_cycle;Max_cycle;Signal;HPM_P1;HPM_P2
2022/05/10 00:00:35;;;;;;;0.10;0.10;;;14.10;96.90;;;;;;5085475;28;20676;-83
2022/05/10 00:03:04;;;;;;;0.10;0.10;;;14.10;97.10;;;;;;5083618;28;20534;-82
2022/05/10 00:05:35;;;;;;;0.10;0.10;;;14.10;96.80;;;;;;5087388;28;20697;-83
2022/05/10 00:08:04;;;;;;;0.10;0.10;;;14.10;97.00;;;;;;5086819;28;20538;-84
2022/05/10 00:10:30;;;;;;;0.10;0.10;;;14.20;97.00;;;;;;5085600;28;20435;-84
2022/05/10 00:12:55;;;;;;;0.10;0.10;;;14.10;96.70;;;;;;5085156;28;20457;-84
2022/05/10 00:15:21;;;;;;;0.10;0.10;;;14.20;96.60;;;;;;5084950;28;20230;-86
2022/05/10 00:17:48;;;;;;;0.10;0.10;;;14.10;96.40;;;;;;5086898;28;20251;-86
2022/05/10 00:20:17;;;;;;;0.10;0.10;;;14.10;96.40;;;;;;5086829;28;20238;-85
2022/05/10 00:22:44;;;;;;;0.10;0.10;;;14.20;96.20;;;;;;5085867;28;20805;-85
2022/05/10 00:25:11;;;;;;;0.10;0.10;;;14.20;96.40;;;;;;5088135;28;20461;-85
2022/05/10 00:27:37;;;;;;;0.10;0.10;;;14.20;96.40;;;;;;5086171;28;20529;-81
2022/05/10 00:30:04;;;;;;;0.10;0.10;;;14.20;96.00;;;;;;5085650;28;20519;-83
2022/05/10 00:32:34;;;;;;;0.10;0.10;;;14.10;96.40;;;;;;5085817;28;20184;-86
2022/05/10 00:34:59;;;;;;;0.10;0.10;;;14.20;96.00;;;;;;5070204;28;20453;-83
2022/05/10 00:37:25;;;;;;;0.10;0.10;;;14.20;95.90;;;;;;5087549;28;20487;-87
2022/05/10 00:39:51;;;;;;;0.20;0.20;;;14.10;96.10;;;;;;5084364;28;20640;-88
2022/05/10 00:42:27;;;;;;;0.10;0.10;;;14.20;96.00;;;;;;5084659;28;20227;-89
2022/05/10 00:45:03;;;;;;;0.10;0.10;;;14.20;96.00;;;;;;5085868;28;20193;-87
2022/05/10 00:47:47;;;;;;;0.10;0.10;;;14.10;96.30;;;;;;5079595;28;20547;-89
2022/05/10 00:50:38;;;;;;;0.10;0.10;;;14.10;96.30;;;;;;5076351;28;20828;-85
2022/05/10 00:53:09;;;;;;;0.10;0.10;;;14.10;96.20;;;;;;5081877;28;20536;-84
2022/05/10 00:55:44;;;;;;;0.10;0.10;;;14.10;96.60;;;;;;5087438;28;20445;-87
2022/05/10 00:58:39;;;;;;;0.10;0.10;;;14.00;96.30;;;;;;5085424;28;20519;-87
2022/05/10 01:01:06;;;;;;;0.20;0.20;;;14.00;96.30;;;;;;5072497;28;20450;-82
2022/05/10 01:03:43;;;;;;;0.10;0.10;;;14.10;96.20;;;;;;5091921;28;20474;-84
2022/05/10 01:06:20;;;;;;;0.10;0.10;;;14.00;96.30;;;;;;5093023;28;20435;-85
2022/05/10 01:09:02;;;;;;;0.10;0.10;;;14.00;96.50;;;;;;5088453;28;20461;-85
2022/05/10 01:11:33;;;;;;;0.10;0.10;;;13.90;96.60;;;;;;5088455;28;20469;-85
2022/05/10 01:14:01;;;;;;;0.10;0.10;;;13.90;96.70;;;;;;5062271;28;20525;-84
2022/05/10 01:16:27;;;;;;;0.13;0.13;;;13.90;97.10;;;;;;5063878;28;20470;-82
2022/05/10 01:18:53;;;;;;;0.10;0.10;;;14.00;96.60;;;;;;5089779;28;20538;-87
2022/05/10 01:21:22;;;;;;;0.10;0.10;;;13.90;96.60;;;;;;5091378;28;20272;-83
2022/05/10 01:24:16;;;;;;;0.10;0.10;;;13.80;96.80;;;;;;5072839;28;20524;-85
2022/05/10 01:27:22;;;;;;;0.10;0.10;;;13.80;97.10;;;;;;5086536;28;20455;-86
2022/05/10 01:30:14;;;;;;;0.10;0.10;;;13.70;97.60;;;;;;5086521;28;20475;-83
2022/05/10 01:35:54;;;;;;;0.10;0.10;;;13.60;97.20;;;;;;5078226;28;20457;-87
2022/05/10 01:38:47;;;;;;;0.10;0.10;;;13.60;97.40;;;;;;5089556;28;20591;-89
2022/05/10 01:41:44;;;;;;;0.10;0.10;;;13.60;97.40;;;;;;5073057;28;20447;-87
2022/05/10 01:44:34;;;;;;;0.20;0.20;;;13.60;97.20;;;;;;5073551;28;20958;-87
2022/05/10 01:47:13;;;;;;;0.10;0.10;;;13.60;97.40;;;;;;5081805;28;20853;-86
2022/05/10 01:49:48;;;;;;;0.10;0.10;;;13.50;97.80;;;;;;5092770;28;20472;-86
2022/05/10 01:52:17;;;;;;;0.20;0.20;;;13.40;97.70;;;;;;5065975;28;20569;-87
2022/05/10 01:54:42;;;;;;;0.20;0.20;;;13.40;98.00;;;;;;5089255;28;20513;-86
2022/05/10 01:57:11;;;;;;;0.10;0.10;;;13.40;97.80;;;;;;5064772;28;20494;-84
2022/05/10 01:59:38;;;;;;;0.10;0.10;;;13.50;97.80;;;;;;5071205;28;20550;-85
2022/05/10 02:02:07;;;;;;;0.10;0.10;;;13.50;97.60;;;;;;5089988;28;20458;-86
2022/05/10 02:04:37;;;;;;;0.10;0.10;;;13.50;97.80;;;;;;5089606;28;20455;-87
2022/05/10 02:07:15;;;;;;;0.10;0.10;;;13.40;98.20;;;;;;5090345;28;20447;-87
2022/05/10 02:09:46;;;;;;;0.10;0.10;;;13.40;98.20;;;;;;5090764;28;20517;-87
2022/05/10 02:12:43;;;;;;;0.20;0.20;;;13.30;98.30;;;;;;5071391;28;20550;-87
2022/05/10 02:15:13;;;;;;;0.10;0.10;;;13.30;98.30;;;;;;5070229;28;20519;-87
2022/05/10 02:17:49;;;;;;;0.20;0.20;;;13.30;98.40;;;;;;5088321;28;20497;-85
2022/05/10 02:20:28;;;;;;;0.10;0.10;;;13.30;98.60;;;;;;5085209;28;20461;-85
2022/05/10 02:23:14;;;;;;;0.10;0.10;;;13.30;98.50;;;;;;5072203;28;20874;-85
2022/05/10 02:25:46;;;;;;;0.20;0.20;;;13.30;98.60;;;;;;5089665;28;20470;-86
2022/05/10 02:28:30;;;;;;;0.20;0.20;;;13.20;98.60;;;;;;5071004;28;20474;-85
2022/05/10 02:31:00;;;;;;;0.10;0.10;;;13.20;98.60;;;;;;5087514;28;20534;-87
2022/05/10 02:33:28;;;;;;;0.20;0.20;;;13.10;99.30;;;;;;5071356;28;20892;-86
2022/05/10 02:35:59;;;;;;;0.20;0.20;;;13.10;98.80;;;;;;5089358;28;20491;-87
2022/05/10 02:38:29;;;;;;;0.20;0.20;;;13.10;99.10;;;;;;5087503;28;22005;-85
2022/05/10 02:40:58;;;;;;;0.10;0.10;;;13.10;99.30;;;;;;5071657;28;20451;-86
2022/05/10 02:43:33;;;;;;;0.20;0.20;;;13.00;98.90;;;;;;5069181;28;20459;-86
2022/05/10 02:45:59;;;;;;;0.20;0.20;;;13.00;99.00;;;;;;5088491;28;20446;-86
2022/05/10 02:48:28;;;;;;;0.20;0.20;;;13.00;99.10;;;;;;5086655;28;20438;-83
2022/05/10 02:50:54;;;;;;;0.20;0.20;;;13.00;99.30;;;;;;5087284;28;20502;-85
2022/05/10 02:53:20;;;;;;;0.10;0.10;;;13.00;99.40;;;;;;5088027;28;20462;-84
2022/05/10 02:56:03;;;;;;;0.10;0.10;;;13.00;99.30;;;;;;5070481;28;20250;-84
2022/05/10 02:58:44;;;;;;;0.10;0.10;;;12.90;99.50;;;;;;5068907;28;20454;-84
2022/05/10 03:01:20;;;;;;;0.20;0.20;;;12.90;99.60;;;;;;5068161;28;20447;-83
2022/05/10 03:03:46;;;;;;;0.20;0.20;;;12.80;99.90;;;;;;5074855;28;20480;-85
2022/05/10 03:06:21;;;;;;;0.10;0.10;;;12.80;99.90;;;;;;5070989;28;20446;-83
2022/05/10 03:08:47;;;;;;;0.10;0.10;;;12.90;99.60;;;;;;5088945;28;20439;-85
2022/05/10 03:11:13;;;;;;;0.20;0.20;;;12.90;99.90;;;;;;5087984;28;20450;-85
2022/05/10 03:13:39;;;;;;;0.20;0.20;;;12.90;99.90;;;;;;5088675;28;20435;-83
2022/05/10 03:16:05;;;;;;;0.20;0.20;;;12.80;99.90;;;;;;5083279;28;20474;-86
2022/05/10 03:18:31;;;;;;;0.17;0.17;;;12.80;99.90;;;;;;5085490;28;20443;-84
2022/05/10 03:20:56;;;;;;;0.20;0.20;;;12.70;99.90;;;;;;5085452;28;20439;-84
2022/05/10 03:23:22;;;;;;;0.20;0.20;;;12.70;99.90;;;;;;5086791;28;20185;-84
2022/05/10 03:25:48;;;;;;;0.10;0.10;;;12.60;99.90;;;;;;5086260;28;20185;-85
2022/05/10 03:28:14;;;;;;;0.20;0.20;;;12.60;99.90;;;;;;5065683;28;20215;-85
2022/05/10 03:30:40;;;;;;;0.20;0.20;;;12.60;99.90;;;;;;5082309;28;20189;-85
2022/05/10 03:33:06;;;;;;;0.20;0.20;;;12.60;99.90;;;;;;5080907;28;20538;-86
2022/05/10 03:35:31;;;;;;;0.10;0.10;;;12.60;99.90;;;;;;5084129;28;20531;-85
2022/05/10 03:37:57;;;;;;;0.10;0.10;;;12.60;99.90;;;;;;5076548;28;20216;-86
2022/05/10 03:40:22;;;;;;;0.20;0.20;;;12.50;99.90;;;;;;5085627;28;20185;-83
2022/05/10 03:42:51;;;;;;;0.20;0.20;;;12.50;99.90;;;;;;5089674;28;20185;-84
2022/05/10 03:45:18;;;;;;;0.10;0.10;;;12.50;99.90;;;;;;5066430;28;20185;-86
2022/05/10 03:47:45;;;;;;;0.20;0.20;;;12.60;99.90;;;;;;5088748;28;20806;-84
2022/05/10 03:50:12;;;;;;;0.20;0.20;;;12.50;99.90;;;;;;5087094;28;20447;-85
2022/05/10 03:52:40;;;;;;;0.20;0.20;;;12.50;99.90;;;;;;5069379;28;20498;-85
2022/05/10 03:55:07;;;;;;;0.20;0.20;;;12.50;99.90;;;;;;5069955;28;20451;-84
2022/05/10 03:57:33;;;;;;;0.20;0.20;;;12.50;99.90;;;;;;5085331;28;20493;-82
2022/05/10 03:59:58;;;;;;;0.20;0.20;;;12.50;99.90;;;;;;5087555;28;20450;-84
2022/05/10 04:02:24;;;;;;;0.20;0.20;;;12.50;99.90;;;;;;5085032;28;20755;-83
2022/05/10 04:04:49;;;;;;;0.20;0.20;;;12.40;99.90;;;;;;5086793;28;20230;-85
2022/05/10 04:07:16;;;;;;;0.20;0.20;;;12.50;99.90;;;;;;5070940;28;20192;-85
2022/05/10 04:09:41;;;;;;;0.20;0.20;;;12.50;99.90;;;;;;5069099;28;20300;-83
2022/05/10 04:12:07;;;;;;;0.10;0.10;;;12.50;99.90;;;;;;5071149;28;20526;-83
2022/05/10 04:14:33;;;;;;;0.10;0.10;;;12.50;99.90;;;;;;5086335;28;20177;-85
2022/05/10 04:16:58;;;;;;;0.20;0.20;;;12.50;99.90;;;;;;5087609;28;20497;-85
2022/05/10 04:19:24;;;;;;;0.20;0.20;;;12.50;99.90;;;;;;5087037;28;20193;-86
2022/05/10 04:21:50;;;;;;;0.13;0.13;;;12.60;99.90;;;;;;5086211;28;20192;-86
2022/05/10 04:24:16;;;;;;;0.10;0.10;;;12.60;99.90;;;;;;5087036;28;20216;-85
2022/05/10 04:26:41;;;;;;;0.20;0.20;;;12.60;99.90;;;;;;5088890;28;20215;-86
2022/05/10 04:29:07;;;;;;;0.20;0.20;;;12.70;99.90;;;;;;5087763;28;20463;-86
2022/05/10 04:31:32;;;;;;;0.20;0.20;;;12.60;99.90;;;;;;5085180;28;20919;-86
2022/05/10 04:33:58;;;;;;;0.20;0.20;;;12.70;99.90;;;;;;5089467;28;20181;-85
2022/05/10 04:36:25;;;;;;;0.10;0.10;;;12.70;99.90;;;;;;5067921;28;20256;-88
2022/05/10 04:38:51;;;;;;;0.17;0.17;;;12.80;99.90;;;;;;5093114;28;20591;-86
2022/05/10 04:41:27;;;;;;;0.10;0.10;;;12.80;99.90;;;;;;5089924;28;20462;-85
2022/05/10 04:43:55;;;;;;;0.13;0.13;;;12.80;99.90;;;;;;5069762;28;20478;-85
2022/05/10 04:46:21;;;;;;;0.10;0.10;;;12.90;99.90;;;;;;5072868;28;20450;-87
2022/05/10 04:48:47;;;;;;;0.10;0.10;;;12.80;99.90;;;;;;5096395;28;20435;-88
2022/05/10 04:51:12;;;;;;;0.10;0.10;;;12.90;99.90;;;;;;5090705;28;20228;-83
2022/05/10 04:53:38;;;;;;;0.10;0.10;;;12.90;99.90;;;;;;5094169;28;20224;-83
2022/05/10 04:56:05;;;;;;;0.10;0.10;;;13.00;99.90;;;;;;5074670;28;20210;-86
2022/05/10 04:58:30;;;;;;;0.20;0.20;;;12.90;99.90;;;;;;5090739;28;21023;-84
2022/05/10 05:01:03;;;;;;;0.10;0.10;;;12.90;99.90;;;;;;5084087;28;20491;-84
2022/05/10 05:03:28;;;;;;;0.10;0.10;;;13.00;99.90;;;;;;5075427;28;20194;-85
2022/05/10 05:05:54;;;;;;;0.10;0.10;;;13.10;99.90;;;;;;5089530;28;20443;-87
2022/05/10 05:08:19;;;;;;;0.10;0.10;;;13.10;99.90;;;;;;5086856;28;20701;-86
2022/05/10 05:10:45;;;;;;;0.10;0.10;;;13.10;99.90;;;;;;5091727;28;20621;-88
2022/05/10 05:13:10;;;;;;;0.10;0.10;;;13.20;99.90;;;;;;5087375;28;20212;-86
2022/05/10 05:15:36;;;;;;;0.10;0.10;;;13.20;99.90;;;;;;5070678;28;20191;-84
2022/05/10 05:18:03;;;;;;;0.10;0.10;;;13.30;99.90;;;;;;5091896;28;20578;-85
2022/05/10 05:20:32;;;;;;;0.10;0.10;;;13.30;99.90;;;;;;5089643;28;20236;-86
2022/05/10 05:22:57;;;;;;;0.10;0.10;;;13.30;99.90;;;;;;5086581;28;20454;-85
2022/05/10 05:25:23;;;;;;;0.10;0.10;;;13.40;99.90;;;;;;5090210;28;20431;-87
2022/05/10 05:27:49;;;;;;;0.10;0.10;;;13.40;99.90;;;;;;5091738;28;20185;-85
2022/05/10 05:30:15;;;;;;;0.10;0.10;;;13.50;99.90;;;;;;5070601;28;20575;-86
2022/05/10 05:32:40;;;;;;;0.10;0.10;;;13.50;99.90;;;;;;5067545;28;20185;-85
2022/05/10 05:35:06;;;;;;;0.10;0.10;;;13.60;99.90;;;;;;5091938;28;20446;-82
2022/05/10 05:37:37;;;;;;;0.10;0.10;;;13.70;99.90;;;;;;5089698;28;20217;-84
2022/05/10 05:40:22;;;;;;;0.10;0.10;;;13.70;99.90;;;;;;5091467;28;20439;-86
2022/05/10 05:42:49;;;;;;;0.10;0.10;;;13.90;99.90;;;;;;5084133;28;20442;-85
2022/05/10 05:45:17;;;;;;;0.10;0.10;;;13.90;99.90;;;;;;5074575;28;20426;-85
2022/05/10 05:47:43;;;;;;;0.10;0.10;;;13.90;99.90;;;;;;5090834;28;20435;-88
2022/05/10 05:50:15;;;;;;;0.10;0.10;;;13.90;99.90;;;;;;5089020;28;20457;-89
2022/05/10 05:52:41;;;;;;;0.10;0.10;;;14.00;99.90;;;;;;5073847;28;20225;-83
2022/05/10 05:55:09;;;;;;;0.10;0.10;;;14.00;99.90;;;;;;5071193;28;20462;-83
2022/05/10 05:57:35;;;;;;;0.10;0.10;;;14.10;99.90;;;;;;5088609;28;21097;-86
2022/05/10 06:00:01;;;;;;;0.10;0.10;;;14.20;99.90;;;;;;5073025;28;20435;-82
2022/05/10 06:02:27;;;;;;;0.10;0.10;;;14.30;99.90;;;;;;5090101;28;20465;-84
2022/05/10 06:04:53;;;;;;;0.10;0.10;;;14.30;99.90;;;;;;5089318;28;20484;-86
2022/05/10 06:07:19;;;;;;;0.10;0.10;;;14.20;99.90;;;;;;5090952;28;20451;-83
2022/05/10 06:09:46;;;;;;;0.10;0.10;;;14.30;99.90;;;;;;5088703;28;20270;-83
2022/05/10 06:12:15;;;;;;;0.10;0.10;;;14.40;99.90;;;;;;5090253;28;20455;-86
2022/05/10 06:14:41;;;;;;;0.10;0.10;;;14.40;99.90;;;;;;5090959;28;20533;-86
2022/05/10 06:17:08;;;;;;;0.10;0.10;;;14.40;99.90;;;;;;5084408;28;20593;-83
2022/05/10 06:19:37;;;;;;;0.10;0.10;;;14.50;99.90;;;;;;5073139;28;20272;-82
2022/05/10 06:22:03;;;;;;;0.10;0.10;;;14.50;99.90;;;;;;5086773;28;20488;-84
2022/05/10 06:24:29;;;;;;;0.10;0.10;;;14.60;99.90;;;;;;5068578;28;20436;-85
2022/05/10 06:26:55;;;;;;;0.10;0.10;;;14.60;99.90;;;;;;5086731;28;20774;-89
2022/05/10 06:29:20;;;;;;;0.10;0.10;;;14.70;99.90;;;;;;5085748;28;20197;-87
2022/05/10 06:31:47;;;;;;;0.10;0.10;;;14.90;99.90;;;;;;5069060;28;20193;-86
2022/05/10 06:34:14;;;;;;;0.10;0.10;;;15.00;99.90;;;;;;5059695;28;20247;-89
2022/05/10 06:36:40;;;;;;;0.10;0.10;;;15.10;99.90;;;;;;5086737;28;20474;-86
2022/05/10 06:39:07;;;;;;;0.10;0.10;;;15.30;99.90;;;;;;5072874;28;20451;-82
2022/05/10 06:41:33;;;;;;;0.10;0.10;;;15.40;99.90;;;;;;5088276;28;20446;-88
2022/05/10 06:43:59;;;;;;;0.10;0.10;;;15.40;99.90;;;;;;5086132;28;21052;-85
2022/05/10 06:46:26;;;;;;;0.10;0.10;;;15.50;99.90;;;;;;5087023;28;20185;-86
2022/05/10 06:48:52;;;;;;;0.10;0.10;;;15.60;99.90;;;;;;5082361;28;20953;-82
2022/05/10 06:51:19;;;;;;;0.10;0.10;;;15.70;99.90;;;;;;5079156;28;20472;-85
2022/05/10 06:53:45;;;;;;;0.13;0.13;;;15.80;99.90;;;;;;5084867;28;20435;-84
2022/05/10 06:56:11;;;;;;;0.10;0.10;;;15.90;99.90;;;;;;5082181;28;20487;-84
2022/05/10 06:58:37;;;;;;;0.10;0.10;;;16.10;99.90;;;;;;5068916;28;20204;-87
2022/05/10 07:01:05;;;;;;;0.10;0.10;;;16.30;99.90;;;;;;5084807;28;20238;-81
2022/05/10 07:03:32;;;;;;;0.10;0.10;;;16.20;99.90;;;;;;5089324;28;20447;-89
2022/05/10 07:06:00;;;;;;;0.10;0.10;;;16.30;99.90;;;;;;5070763;28;20431;-92
2022/05/10 07:08:27;;;;;;;0.10;0.10;;;16.50;99.90;;;;;;5082722;28;20511;-91
2022/05/10 07:10:53;;;;;;;0.10;0.10;;;16.60;99.90;;;;;;5081984;28;20436;-87
2022/05/10 07:13:22;;;;;;;0.10;0.10;;;16.60;99.90;;;;;;5088352;28;20443;-84
2022/05/10 07:15:48;;;;;;;0.10;0.10;;;16.60;99.90;;;;;;5071390;28;20443;-89
2022/05/10 07:18:14;;;;;;;0.10;0.10;;;16.70;99.90;;;;;;5089497;28;20455;-86
2022/05/10 07:20:41;;;;;;;0.10;0.10;;;16.80;99.90;;;;;;5087505;28;20185;-84
2022/05/10 07:23:07;;;;;;;0.10;0.10;;;16.80;99.90;;;;;;5087935;28;20455;-89
2022/05/10 07:25:33;;;;;;;0.10;0.10;;;16.90;99.90;;;;;;5070578;28;20976;-91
2022/05/10 07:27:59;;;;;;;0.10;0.10;;;17.00;99.90;;;;;;5090025;28;20451;-91
2022/05/10 07:30:27;;;;;;;0.10;0.10;;;17.10;99.90;;;;;;5071630;28;20194;-87
2022/05/10 07:32:53;;;;;;;0.10;0.10;;;17.00;99.90;;;;;;5069632;28;20962;-87
2022/05/10 07:36:23;;;;;;;0.10;0.10;;;17.10;99.90;;;;;;5085739;28;20453;-85
2022/05/10 07:38:15;;;;;;;0.10;0.10;;;17.10;99.90;;;;;;5084456;28;20475;-88
2022/05/10 07:40:43;;;;;;;0.10;0.10;;;17.10;99.90;;;;;;5068195;28;20445;-87
2022/05/10 07:43:10;;;;;;;0.10;0.10;;;17.20;99.90;;;;;;5088141;28;20451;-87
2022/05/10 07:45:36;;;;;;;0.00;0.00;;;17.20;99.90;;;;;;5083970;28;20447;-88
2022/05/10 07:48:03;;;;;;;0.00;0.00;;;17.30;99.90;;;;;;5072001;28;20520;-84
2022/05/10 07:50:28;;;;;;;0.00;0.00;;;17.40;99.90;;;;;;5069771;28;20936;-85
2022/05/10 07:52:54;;;;;;;0.10;0.10;;;17.30;99.90;;;;;;5071232;28;20456;-89
2022/05/10 07:55:19;;;;;;;0.00;0.00;;;17.30;99.90;;;;;;5083039;28;20185;-88
2022/05/10 07:57:45;;;;;;;0.10;0.10;;;17.30;99.90;;;;;;5084650;28;20690;-87
2022/05/10 08:00:12;;;;;;;0.10;0.10;;;17.30;99.90;;;;;;5071365;28;20233;-86
2022/05/10 08:02:42;;;;;;;0.10;0.10;;;17.30;99.90;;;;;;5069598;28;20193;-87
2022/05/10 08:05:12;;;;;;;0.00;0.00;;;17.30;99.90;;;;;;5089818;28;20956;-88
2022/05/10 08:07:37;;;;;;;0.10;0.10;;;17.30;99.90;;;;;;5088127;28;20475;-88
2022/05/10 08:10:04;;;;;;;0.10;0.10;;;17.30;99.90;;;;;;5071549;28;20867;-87
2022/05/10 08:12:30;;;;;;;0.00;0.00;;;17.30;99.90;;;;;;5087128;28;20189;-87
2022/05/10 08:14:56;;;;;;;0.10;0.10;;;17.30;99.90;;;;;;5070224;28;20856;-87
2022/05/10 08:17:23;;;;;;;0.10;0.10;;;17.30;99.90;;;;;;5071793;28;20489;-86
2022/05/10 08:19:50;;;;;;;0.10;0.10;;;17.30;99.90;;;;;;5088628;28;21116;-87
2022/05/10 08:22:16;;;;;;;0.10;0.10;;;17.30;99.90;;;;;;5087532;28;20288;-87
2022/05/10 08:24:42;;;;;;;0.00;0.00;;;17.30;99.90;;;;;;5070045;28;20439;-87
2022/05/10 08:27:07;;;;;;;0.10;0.10;;;17.40;99.90;;;;;;5088026;28;20826;-88
2022/05/10 08:29:33;;;;;;;0.00;0.00;;;17.50;99.90;;;;;;5088378;28;20222;-87
2022/05/10 08:31:59;;;;;;;0.10;0.10;;;17.70;99.90;;;;;;5088158;28;20258;-86
2022/05/10 08:34:24;;;;;;;0.00;0.00;;;18.10;99.90;;;;;;5088994;28;20217;-85
2022/05/10 08:36:50;;;;;;;0.00;0.00;;;18.30;99.90;;;;;;5090366;28;20224;-85
2022/05/10 08:39:15;;;;;;;0.00;0.00;;;18.40;99.90;;;;;;5089618;28;20188;-83
2022/05/10 08:41:55;;;;;;;0.10;0.10;;;18.50;99.90;;;;;;5088858;28;20600;-86
2022/05/10 08:44:25;;;;;;;0.10;0.10;;;18.50;99.90;;;;;;5088589;28;20222;-83
2022/05/10 08:46:54;;;;;;;0.00;0.00;;;18.60;99.90;;;;;;5088730;28;20443;-84
2022/05/10 08:49:24;;;;;;;0.00;0.00;;;18.80;99.90;;;;;;5089998;28;20469;-88
2022/05/10 08:51:52;;;;;;;0.00;0.00;;;19.10;99.90;;;;;;5086977;28;20482;-86
2022/05/10 08:54:18;;;;;;;0.00;0.00;;;19.00;99.90;;;;;;5071011;28;20439;-84
2022/05/10 08:56:54;;;;;;;0.00;0.00;;;19.00;99.90;;;;;;5088029;28;20512;-86
2022/05/10 08:59:45;;;;;;;0.00;0.00;;;19.00;99.90;;;;;;5089961;28;20191;-88
2022/05/10 09:02:16;;;;;;;0.00;0.00;;;19.00;99.90;;;;;;5089460;28;20836;-85
2022/05/10 09:04:54;;;;;;;0.00;0.00;;;19.40;99.90;;;;;;5086317;28;20431;-88
2022/05/10 09:07:48;;;;;;;0.00;0.00;;;19.50;99.90;;;;;;5085758;28;20478;-90
2022/05/10 09:10:27;;;;;;;0.00;0.00;;;20.00;99.90;;;;;;5053443;28;20501;-93
2022/05/10 09:13:05;;;;;;;0.00;0.00;;;20.20;99.90;;;;;;5087688;28;20447;-93
2022/05/10 09:15:40;;;;;;;0.00;0.00;;;20.10;99.90;;;;;;5073316;28;20957;-93
2022/05/10 09:18:08;;;;;;;0.00;0.00;;;20.40;99.90;;;;;;5079268;28;20478;-88
2022/05/10 09:20:41;;;;;;;0.00;0.00;;;20.70;99.90;;;;;;5088525;28;20480;-86
2022/05/10 09:23:28;;;;;;;0.00;0.00;;;20.60;99.90;;;;;;5088498;28;20443;-88
2022/05/10 09:25:56;;;;;;;0.00;0.00;;;20.90;99.90;;;;;;5089677;28;20439;-83
2022/05/10 09:28:50;;;;;;;0.00;0.00;;;20.80;99.90;;;;;;5088612;28;20446;-85
2022/05/10 09:34:46;;;;;;;0.00;0.00;;;21.10;99.90;;;;;;5026782;28;20529;-85
2022/05/10 09:37:21;;;;;;;0.00;0.00;;;21.10;99.90;;;;;;5077989;28;20490;-85
2022/05/10 09:39:59;;;;;;;0.00;0.00;;;21.20;99.90;;;;;;5066473;28;20986;-87
2022/05/10 09:42:27;;;;;;;0.00;0.00;;;21.60;99.90;;;;;;5088460;28;20447;-83
2022/05/10 09:45:00;;;;;;;0.10;0.10;;;21.40;99.90;;;;;;5086090;28;20508;-87
2022/05/10 09:47:26;;;;;;;0.10;0.10;;;21.70;99.90;;;;;;5089838;28;20538;-86
2022/05/10 09:49:51;;;;;;;0.10;0.10;;;21.90;99.80;;;;;;5092766;28;20435;-87
2022/05/10 09:52:24;;;;;;;0.10;0.10;;;22.30;99.40;;;;;;5070996;28;20466;-85
2022/05/10 09:54:56;;;;;;;0.10;0.10;;;22.40;99.40;;;;;;5086905;28;20185;-87
2022/05/10 09:57:30;;;;;;;0.30;0.30;;;22.80;99.90;;;;;;5085836;28;21119;-89
2022/05/10 09:59:56;;;;;;;0.20;0.20;;;23.00;98.00;;;;;;5092569;28;20442;-85
2022/05/10 10:02:37;;;;;;;0.10;0.10;;;23.00;98.20;;;;;;5089186;28;20488;-85
2022/05/10 10:05:20;;;;;;;0.10;0.10;;;22.90;97.00;;;;;;5087811;28;20190;-90
2022/05/10 10:07:53;;;;;;;0.10;0.10;;;23.10;97.00;;;;;;5093364;28;20527;-88
2022/05/10 10:10:25;;;;;;;0.20;0.20;;;22.90;96.70;;;;;;5090377;28;21003;-85
2022/05/10 10:12:51;;;;;;;0.00;0.00;;;23.40;96.30;;;;;;5087108;28;20543;-87
2022/05/10 10:15:40;;;;;;;0.10;0.10;;;23.60;96.30;;;;;;5091903;28;21009;-86
2022/05/10 10:18:10;;;;;;;0.10;0.10;;;23.70;95.30;;;;;;5084229;28;20245;-88
2022/05/10 10:20:47;;;;;;;0.00;0.00;;;23.90;95.10;;;;;;5089415;28;20501;-86
2022/05/10 10:23:28;;;;;;;0.00;0.00;;;23.90;94.80;;;;;;5090247;28;20958;-89
2022/05/10 10:26:20;;;;;;;0.10;0.10;;;24.20;93.50;;;;;;5091975;28;20537;-86
2022/05/10 10:28:57;;;;;;;0.00;0.00;;;23.90;91.80;;;;;;5086749;28;20435;-94
2022/05/10 10:31:44;;;;;;;0.00;0.00;;;23.80;89.30;;;;;;5085803;28;20954;-83
2022/05/10 10:34:22;;;;;;;0.00;0.00;;;23.60;88.00;;;;;;5079516;28;20537;-84
2022/05/10 10:37:11;;;;;;;0.00;0.00;;;23.80;88.30;;;;;;5082976;28;20477;-84
2022/05/10 10:40:04;;;;;;;0.10;0.10;;;23.90;86.90;;;;;;5081151;28;20443;-88
2022/05/10 10:42:58;;;;;;;0.00;0.00;;;24.10;87.80;;;;;;5085072;28;20431;-87
2022/05/10 10:45:45;;;;;;;0.20;0.20;;;24.60;87.70;;;;;;5083742;28;21086;-93
2022/05/10 10:48:44;;;;;;;0.00;0.00;;;24.50;86.40;;;;;;5087785;28;20503;-85
2022/05/10 10:51:11;;;;;;;0.10;0.10;;;24.00;88.10;;;;;;5088545;28;20475;-88
2022/05/10 10:53:39;;;;;;;0.00;0.00;;;23.90;91.20;;;;;;5086811;28;20465;-87
2022/05/10 10:56:33;;;;;;;0.00;0.00;;;23.50;89.90;;;;;;5087473;28;20801;-91
2022/05/10 10:59:10;;;;;;;0.00;0.00;;;23.20;90.60;;;;;;5091080;28;20455;-89
2022/05/10 11:02:04;;;;;;;0.00;0.00;;;22.90;89.80;;;;;;5091573;28;20525;-84
2022/05/10 11:04:46;;;;;;;0.00;0.00;;;22.80;89.70;;;;;;5090849;28;20459;-86
2022/05/10 11:07:34;;;;;;;0.00;0.00;;;22.70;88.40;;;;;;5088776;28;20466;-90
2022/05/10 11:10:10;;;;;;;0.00;0.00;;;22.80;89.90;;;;;;5089105;28;20953;-93
2022/05/10 11:12:47;;;;;;;0.00;0.00;;;22.90;90.90;;;;;;5071405;28;20440;-85
2022/05/10 11:15:41;;;;;;;0.00;0.00;;;22.90;89.30;;;;;;5075103;28;20453;-89
2022/05/10 11:18:37;;;;;;;0.00;0.00;;;22.80;89.20;;;;;;5070956;28;20480;-90
2022/05/10 11:21:24;;;;;;;0.00;0.00;;;22.70;88.20;;;;;;5032491;28;20446;-91
2022/05/10 11:24:36;;;;;;;0.00;0.00;;;22.90;89.00;;;;;;5072775;28;20405;-89
2022/05/10 11:27:28;;;;;;;0.00;0.00;;;23.20;86.70;;;;;;5073017;28;20442;-89
2022/05/10 11:30:23;;;;;;;0.00;0.00;;;23.90;87.20;;;;;;5089474;28;20500;-96
2022/05/10 11:33:07;;;;;;;0.00;0.00;;;24.00;86.60;;;;;;5073855;28;20447;-87
2022/05/10 11:36:15;;;;;;;0.00;0.00;;;24.00;85.10;;;;;;5073170;28;20439;-90
2022/05/10 11:38:40;;;;;;;0.00;0.00;;;24.20;88.20;;;;;;5073467;28;20455;-89
2022/05/10 11:41:23;;;;;;;0.00;0.00;;;24.60;86.00;;;;;;5072616;28;20884;-88
2022/05/10 11:43:55;;;;;;;0.00;0.00;;;24.30;87.50;;;;;;5071280;28;20268;-85
2022/05/10 11:46:36;;;;;;;0.00;0.00;;;24.00;86.60;;;;;;5073902;28;20454;-91
2022/05/10 11:49:05;;;;;;;0.10;0.10;;;23.90;86.70;;;;;;5072850;28;20482;-91
2022/05/10 11:52:04;;;;;;;0.00;0.00;;;23.90;89.90;;;;;;5060031;28;20476;-92
2022/05/10 11:55:13;;;;;;;0.00;0.00;;;23.90;89.80;;;;;;5086852;28;20473;-89
2022/05/10 11:57:40;;;;;;;0.00;0.00;;;23.80;89.40;;;;;;5087146;28;21050;-93
2022/05/10 12:00:25;;;;;;;0.00;0.00;;;23.80;90.40;;;;;;5078132;28;21226;-91
2022/05/10 12:02:51;;;;;;;0.00;0.00;;;24.10;90.10;;;;;;5077136;28;20455;-94
2022/05/10 12:05:28;;;;;;;0.00;0.00;;;23.70;89.80;;;;;;5070241;28;20887;-90
2022/05/10 12:07:58;;;;;;;0.00;0.00;;;23.60;91.10;;;;;;5083615;28;20899;-94
2022/05/10 12:10:32;;;;;;;0.00;0.00;;;23.70;90.20;;;;;;5089118;28;20459;-83
2022/05/10 12:13:05;;;;;;;0.00;0.00;;;23.90;89.60;;;;;;5087428;28;20652;-89
2022/05/10 12:21:19;;;;;;;0.00;0.00;;;23.60;90.70;;;;;;5086299;28;20431;-86
2022/05/10 12:24:05;;;;;;;0.00;0.00;;;23.40;91.60;;;;;;5087933;28;20475;-89
2022/05/10 12:26:45;;;;;;;0.00;0.00;;;23.40;92.10;;;;;;5073084;28;20438;-95
2022/05/10 12:29:31;;;;;;;0.00;0.00;;;23.30;91.60;;;;;;5087506;28;20443;-87
2022/05/10 12:32:09;;;;;;;0.00;0.00;;;23.00;91.10;;;;;;5079270;28;20808;-84
2022/05/10 12:34:40;;;;;;;0.00;0.00;;;23.00;91.20;;;;;;5069832;28;20438;-89
2022/05/10 12:37:30;;;;;;;0.00;0.00;;;23.10;92.30;;;;;;5075640;28;20474;-85
2022/05/10 12:40:08;;;;;;;0.00;0.00;;;23.20;90.90;;;;;;5082641;28;20446;-89
2022/05/10 12:42:54;;;;;;;0.00;0.00;;;23.20;92.00;;;;;;5070478;28;20453;-94
2022/05/10 12:45:42;;;;;;;0.00;0.00;;;23.20;90.90;;;;;;5062918;28;20806;-92
2022/05/10 12:48:46;;;;;;;0.00;0.00;;;23.30;91.40;;;;;;5086217;28;20450;-87
2022/05/10 12:52:01;;;;;;;0.00;0.00;;;23.40;91.00;;;;;;5063047;28;20482;-87
2022/05/10 12:54:38;;;;;;;0.00;0.00;;;24.10;91.20;;;;;;5054521;28;20443;-95
2022/05/10 12:57:09;;;;;;;0.00;0.00;;;24.90;90.10;;;;;;5073785;28;20481;-86
2022/05/10 12:59:48;;;;;;;0.00;0.00;;;24.80;87.00;;;;;;5071935;28;21120;-92
2022/05/10 13:02:14;;;;;;;0.00;0.00;;;24.80;88.30;;;;;;5063237;28;20452;-84
2022/05/10 13:04:52;;;;;;;0.00;0.00;;;24.50;90.20;;;;;;5092368;28;20531;-94
2022/05/10 13:07:40;;;;;;;0.00;0.00;;;24.50;90.20;;;;;;5073153;28;20469;-90
2022/05/10 13:10:16;;;;;;;0.00;0.00;;;24.50;89.10;;;;;;5072993;28;20441;-88
2022/05/10 13:12:46;;;;;;;0.00;0.00;;;24.40;88.60;;;;;;5094963;28;20431;-82
2022/05/10 13:15:16;;;;;;;0.00;0.00;;;24.00;90.10;;;;;;5077685;28;20433;-95
2022/05/10 13:17:51;;;;;;;0.00;0.00;;;23.70;91.00;;;;;;5077065;28;21071;-94
2022/05/10 13:20:23;;;;;;;0.00;0.00;;;23.60;91.20;;;;;;5095885;28;20437;-86
2022/05/10 13:22:53;;;;;;;0.00;0.00;;;23.60;90.90;;;;;;5074411;28;20447;-91
2022/05/10 13:25:30;;;;;;;0.00;0.00;;;23.30;90.80;;;;;;5074854;28;20431;-88
2022/05/10 13:28:10;;;;;;;0.00;0.00;;;23.20;92.20;;;;;;5072988;28;20427;-90